Time;durP1;ratioP1;P1;durP2;ratioP2;P2;SDS_P1;SDS_P2;PMS_P1;PMS_P2;Temp;Humidity;BMP_temperature;BMP_pressure;BME280_temperature;BME280_humidity;BME280_pressure;Samples;Min_cycle;Max_cycle;Signal;HPM_P1;HPM_P2
2021/11/10 00:00:03;;;;;;;16.67;8.23;;;;;;;4.78;75.40;101285.53;5053295;28;20454;-78
2021/11/10 00:02:28;;;;;;;20.60;10.27;;;;;;;4.79;74.69;101281.81;5035785;28;20474;-78
2021/11/10 00:04:54;;;;;;;14.50;8.63;;;;;;;4.70;75.04;101273.91;5052134;28;20566;-78
2021/11/10 00:07:19;;;;;;;13.33;9.00;;;;;;;4.64;75.41;101287.22;5042624;28;20890;-78
2021/11/10 00:09:44;;;;;;;14.40;8.77;;;;;;;4.58;76.24;101296.00;5044545;28;20496;-78
2021/11/10 00:12:10;;;;;;;13.75;9.05;;;;;;;4.56;76.28;101279.25;5035997;28;20406;-78
2021/11/10 00:14:35;;;;;;;17.67;9.37;;;;;;;4.60;76.25;101280.56;5046270;28;20394;-78
2021/11/10 00:17:01;;;;;;;16.93;8.93;;;;;;;4.54;76.34;101274.09;5040159;28;20389;-78
2021/11/10 00:19:26;;;;;;;15.73;8.50;;;;;;;4.51;76.39;101285.16;5050485;28;20830;-78
2021/11/10 00:21:51;;;;;;;11.00;7.70;;;;;;;4.49;76.90;101278.31;5046155;28;20397;-78
2021/11/10 00:24:17;;;;;;;14.53;8.57;;;;;;;4.43;76.92;101263.81;5035352;28;20401;-79
2021/11/10 00:26:43;;;;;;;11.73;8.13;;;;;;;4.44;77.44;101270.84;5051268;28;20401;-78
2021/11/10 00:29:08;;;;;;;12.33;7.10;;;;;;;4.41;77.48;101270.38;5046199;28;20879;-78
2021/11/10 00:31:34;;;;;;;12.17;7.17;;;;;;;4.40;77.88;101271.41;5035395;28;20398;-78
2021/11/10 00:33:59;;;;;;;9.73;7.50;;;;;;;4.39;77.83;101272.41;5046577;28;20800;-78
2021/11/10 00:36:24;;;;;;;15.40;7.63;;;;;;;4.36;77.95;101260.19;5044470;28;20421;-78
2021/11/10 00:38:50;;;;;;;11.95;7.82;;;;;;;4.36;77.96;101254.84;5040944;28;20549;-78
2021/11/10 00:41:15;;;;;;;12.50;7.77;;;;;;;4.30;77.85;101254.75;5036843;28;20403;-78
2021/11/10 00:43:41;;;;;;;11.53;7.37;;;;;;;4.32;77.93;101264.25;5037551;28;20932;-78
2021/11/10 00:46:07;;;;;;;12.00;7.40;;;;;;;4.27;78.03;101272.03;5045710;28;20421;-78
2021/11/10 00:48:32;;;;;;;9.90;6.80;;;;;;;4.25;77.86;101263.31;5046057;28;20447;-78
2021/11/10 00:50:57;;;;;;;11.97;7.83;;;;;;;4.23;78.19;101265.38;5047917;28;20421;-78
2021/11/10 00:53:23;;;;;;;11.87;7.43;;;;;;;4.24;77.81;101271.56;5038679;28;20411;-78
2021/11/10 00:55:48;;;;;;;11.75;7.15;;;;;;;4.23;77.98;101261.84;5043443;28;20939;-78
2021/11/10 00:58:14;;;;;;;12.70;7.83;;;;;;;4.21;78.25;101272.78;5046011;28;20420;-78
2021/11/10 01:00:39;;;;;;;13.20;7.93;;;;;;;4.21;77.69;101264.75;5045160;28;20417;-78
2021/11/10 01:03:06;;;;;;;11.57;7.97;;;;;;;4.24;78.03;101269.72;5046833;28;20872;-78
2021/11/10 01:05:33;;;;;;;12.50;7.80;;;;;;;4.30;77.68;101260.94;5047956;28;20409;-78
2021/11/10 01:07:58;;;;;;;13.73;7.70;;;;;;;4.29;77.89;101266.47;5050308;28;20760;-78
2021/11/10 01:10:25;;;;;;;9.77;7.27;;;;;;;4.29;77.77;101272.69;5040890;28;20417;-78
2021/11/10 01:12:51;;;;;;;10.02;6.85;;;;;;;4.26;76.47;101269.53;5033978;28;20878;-78
2021/11/10 01:15:18;;;;;;;10.07;7.03;;;;;;;4.12;74.14;101280.06;5031299;28;20550;-78
2021/11/10 01:17:44;;;;;;;9.75;7.07;;;;;;;4.01;74.37;101283.22;5043450;28;20412;-78
2021/11/10 01:20:11;;;;;;;10.55;7.45;;;;;;;4.00;74.34;101284.22;5049786;28;20401;-78
2021/11/10 01:22:37;;;;;;;13.20;7.60;;;;;;;3.97;75.13;101273.84;5046729;28;20401;-78
2021/11/10 01:25:05;;;;;;;8.55;7.00;;;;;;;3.96;75.79;101271.34;5048963;28;20398;-78
2021/11/10 01:27:31;;;;;;;10.90;7.28;;;;;;;3.93;76.27;101275.22;5042783;28;20458;-78
2021/11/10 01:29:57;;;;;;;9.60;6.72;;;;;;;3.93;76.34;101272.53;5041387;28;20805;-78
2021/11/10 01:32:22;;;;;;;9.83;6.90;;;;;;;3.91;76.54;101276.44;5048259;28;20424;-78
2021/11/10 01:34:47;;;;;;;13.65;7.25;;;;;;;3.85;77.00;101287.88;5036832;28;20457;-78
2021/11/10 01:37:13;;;;;;;11.95;7.18;;;;;;;3.82;77.11;101275.66;5049119;28;20503;-78
2021/11/10 01:39:39;;;;;;;10.73;6.85;;;;;;;3.82;77.06;101275.66;5050195;28;20496;-78
2021/11/10 01:42:05;;;;;;;15.70;7.72;;;;;;;3.78;77.31;101269.00;5049065;28;20421;-78
2021/11/10 01:44:37;;;;;;;12.90;8.10;;;;;;;3.80;77.43;101279.53;5036925;28;20410;-78
2021/11/10 01:47:12;;;;;;;10.57;7.37;;;;;;;3.79;77.53;101267.97;5039386;28;20405;-78
2021/11/10 01:49:41;;;;;;;9.80;7.60;;;;;;;3.81;77.50;101278.53;5052994;28;20931;-78
2021/11/10 01:52:09;;;;;;;12.43;7.43;;;;;;;3.81;77.48;101276.69;5040884;28;20387;-78
2021/11/10 01:54:35;;;;;;;10.35;7.38;;;;;;;3.83;76.99;101289.91;5043976;28;20415;-78
2021/11/10 01:57:02;;;;;;;12.15;7.07;;;;;;;3.75;77.37;101282.78;5049878;28;20401;-78
2021/11/10 01:59:43;;;;;;;12.80;8.07;;;;;;;3.69;77.87;101277.31;5045186;28;20455;-78
2021/11/10 02:02:27;;;;;;;10.50;7.68;;;;;;;3.69;77.99;101278.13;5038885;28;20422;-78
2021/11/10 02:04:53;;;;;;;10.13;6.82;;;;;;;3.78;77.99;101269.00;5043378;28;20863;-78
2021/11/10 02:07:20;;;;;;;10.93;7.45;;;;;;;3.79;77.80;101267.16;5053963;28;20499;-78
2021/11/10 02:09:48;;;;;;;11.05;7.40;;;;;;;3.76;78.03;101265.66;5049636;28;20453;-78
2021/11/10 02:12:14;;;;;;;12.88;7.80;;;;;;;3.75;78.02;101258.66;5046587;28;20750;-78
2021/11/10 02:14:40;;;;;;;11.90;7.37;;;;;;;3.72;78.16;101244.78;5043007;28;20495;-78
2021/11/10 02:17:07;;;;;;;9.93;6.80;;;;;;;3.75;78.00;101242.56;5044152;28;20406;-78
2021/11/10 02:19:33;;;;;;;9.68;6.43;;;;;;;3.75;77.75;101244.41;5035150;28;20415;-78
2021/11/10 02:22:01;;;;;;;9.15;6.57;;;;;;;3.71;77.98;101232.38;5052284;28;20486;-78
2021/11/10 02:24:28;;;;;;;10.52;7.18;;;;;;;3.72;77.96;101239.41;5047425;28;20414;-78
2021/11/10 02:26:54;;;;;;;10.43;6.25;;;;;;;3.69;77.12;101232.53;5043795;28;20399;-78
2021/11/10 02:29:25;;;;;;;11.03;6.27;;;;;;;3.64;76.28;101243.81;5035272;28;20411;-78
2021/11/10 02:31:52;;;;;;;12.82;6.85;;;;;;;3.61;76.00;101248.72;5048429;28;20907;-79
2021/11/10 02:34:18;;;;;;;7.15;5.50;;;;;;;3.61;75.96;101243.34;5049478;28;20420;-78
2021/11/10 02:36:44;;;;;;;10.17;6.20;;;;;;;3.58;75.89;101241.03;5047380;28;20409;-78
2021/11/10 02:39:16;;;;;;;11.10;7.00;;;;;;;3.55;76.06;101236.03;5047723;28;20405;-78
2021/11/10 02:41:41;;;;;;;10.65;5.85;;;;;;;3.52;75.74;101242.56;5050866;28;20756;-79
2021/11/10 02:44:07;;;;;;;12.03;5.43;;;;;;;3.51;76.02;101240.09;5048179;28;20440;-78
2021/11/10 02:46:34;;;;;;;9.63;6.33;;;;;;;3.49;75.27;101232.22;5041514;28;20991;-78
2021/11/10 02:48:59;;;;;;;8.80;5.33;;;;;;;3.46;75.65;101221.84;5052162;28;20969;-78
2021/11/10 02:51:25;;;;;;;7.17;5.10;;;;;;;3.44;75.68;101206.97;5053352;28;20385;-78
2021/11/10 02:53:50;;;;;;;5.87;5.20;;;;;;;3.36;75.68;101207.88;5047580;28;20494;-78
2021/11/10 02:56:16;;;;;;;8.00;5.25;;;;;;;3.38;74.79;101213.91;5039088;28;20439;-78
2021/11/10 02:58:41;;;;;;;9.70;5.72;;;;;;;3.36;75.07;101199.84;5039861;28;20446;-78
2021/11/10 03:01:07;;;;;;;13.35;6.07;;;;;;;3.34;75.30;101198.34;5044870;28;20768;-78
2021/11/10 03:03:33;;;;;;;11.02;6.43;;;;;;;3.35;75.54;101184.78;5050361;28;20492;-78
2021/11/10 03:05:58;;;;;;;8.20;5.30;;;;;;;3.36;75.57;101186.44;5048641;28;20493;-79
2021/11/10 03:08:24;;;;;;;7.78;5.53;;;;;;;3.36;75.08;101188.31;5052550;28;20474;-78
2021/11/10 03:10:50;;;;;;;9.93;5.57;;;;;;;3.33;74.90;101184.13;5051906;28;20892;-78
2021/11/10 03:13:16;;;;;;;7.93;5.18;;;;;;;3.32;75.30;101173.59;5049419;28;20409;-78
2021/11/10 03:15:43;;;;;;;7.40;5.88;;;;;;;3.33;75.47;101180.59;5034141;28;20405;-78
2021/11/10 03:18:10;;;;;;;8.45;4.72;;;;;;;3.31;75.26;101179.97;5038002;28;21177;-78
2021/11/10 03:20:35;;;;;;;9.45;6.10;;;;;;;3.27;75.14;101174.13;5042767;28;20525;-78
2021/11/10 03:23:02;;;;;;;10.53;6.13;;;;;;;3.21;75.13;101179.38;5033731;28;20507;-78
2021/11/10 03:25:27;;;;;;;13.18;6.45;;;;;;;3.19;74.87;101187.59;5053011;28;20473;-78
2021/11/10 03:27:52;;;;;;;13.43;6.03;;;;;;;3.14;74.84;101184.63;5043247;28;20980;-78
2021/11/10 03:30:19;;;;;;;10.40;6.13;;;;;;;3.12;74.84;101184.81;5050141;28;20752;-78
2021/11/10 03:32:45;;;;;;;11.43;6.33;;;;;;;3.10;75.47;101186.81;5050238;28;20505;-78
2021/11/10 03:35:11;;;;;;;14.82;7.43;;;;;;;3.13;75.04;101193.66;5051781;28;20416;-78
2021/11/10 03:37:37;;;;;;;12.30;7.07;;;;;;;3.07;75.44;101183.66;5040273;28;20924;-79
2021/11/10 03:40:04;;;;;;;11.10;7.25;;;;;;;3.07;75.67;101181.81;5044835;28;20484;-78
2021/11/10 03:42:30;;;;;;;12.40;7.05;;;;;;;3.06;75.68;101182.00;5042684;28;22161;-79
2021/11/10 03:44:55;;;;;;;12.60;7.50;;;;;;;3.03;76.00;101185.06;5043113;28;20554;-78
2021/11/10 03:47:20;;;;;;;13.13;6.97;;;;;;;3.03;75.75;101182.38;5040002;28;20884;-78
2021/11/10 03:49:46;;;;;;;10.57;6.67;;;;;;;3.02;75.58;101188.72;5040394;28;20433;-78
2021/11/10 03:52:14;;;;;;;12.20;6.63;;;;;;;3.00;75.75;101193.41;5046457;28;20559;-78
2021/11/10 03:54:40;;;;;;;11.23;7.07;;;;;;;3.01;75.53;101195.09;5045394;28;20500;-78
2021/11/10 03:57:05;;;;;;;14.17;7.40;;;;;;;3.00;75.80;101193.41;5043880;28;20534;-78
2021/11/10 03:59:30;;;;;;;10.93;7.50;;;;;;;2.97;75.70;101194.59;5043743;28;20407;-79
2021/11/10 04:01:56;;;;;;;17.77;8.50;;;;;;;3.00;75.85;101193.41;5041697;28;20410;-78
2021/11/10 04:04:21;;;;;;;18.73;9.30;;;;;;;2.99;75.59;101189.94;5043698;28;20469;-78
2021/11/10 04:06:46;;;;;;;17.77;9.35;;;;;;;3.01;75.69;101193.25;5046485;28;20462;-78
2021/11/10 04:09:12;;;;;;;17.77;9.20;;;;;;;3.05;76.05;101196.41;5043887;28;20429;-78
2021/11/10 04:11:37;;;;;;;8.73;7.73;;;;;;;3.06;76.33;101198.09;5038752;28;20406;-78
2021/11/10 04:14:04;;;;;;;13.50;8.37;;;;;;;3.06;76.52;101206.91;5050423;28;20498;-78
2021/11/10 04:16:30;;;;;;;9.32;7.50;;;;;;;3.05;76.46;101199.09;5038752;28;20770;-78
2021/11/10 04:18:57;;;;;;;17.33;8.18;;;;;;;3.04;76.85;101213.47;5039707;28;20419;-78
2021/11/10 04:21:22;;;;;;;16.15;8.75;;;;;;;3.04;77.19;101216.16;5051030;28;20494;-78
2021/11/10 04:23:51;;;;;;;14.65;8.20;;;;;;;3.02;76.72;101223.53;5043962;28;20450;-78
2021/11/10 04:26:17;;;;;;;12.63;8.15;;;;;;;3.01;76.74;101230.72;5049809;28;20446;-78
2021/11/10 04:28:42;;;;;;;12.82;7.40;;;;;;;3.01;76.56;101230.72;5048579;28;20919;-78
2021/11/10 04:31:07;;;;;;;60.97;29.93;;;;;;;3.04;76.12;101225.03;5051788;28;20399;-78
2021/11/10 04:33:33;;;;;;;13.03;8.13;;;;;;;3.03;76.62;101222.53;5039186;28;20413;-78
2021/11/10 04:35:58;;;;;;;9.83;7.47;;;;;;;2.99;76.95;101218.53;5047200;28;20419;-78
2021/11/10 04:38:23;;;;;;;14.40;8.10;;;;;;;2.96;77.53;101211.69;5039769;28;20478;-78
2021/11/10 04:40:49;;;;;;;13.25;7.85;;;;;;;2.97;77.33;101199.13;5048247;28;20445;-78
2021/11/10 04:43:15;;;;;;;9.32;7.07;;;;;;;2.95;77.98;101193.97;5046895;28;20439;-78
2021/11/10 04:45:40;;;;;;;9.63;7.05;;;;;;;2.94;77.88;101189.59;5050733;28;20437;-78
2021/11/10 04:48:06;;;;;;;8.20;7.18;;;;;;;2.96;78.12;101194.81;5045544;28;20423;-78
2021/11/10 04:50:32;;;;;;;17.55;8.18;;;;;;;3.01;78.32;101205.78;5047687;28;20511;-78
2021/11/10 04:52:59;;;;;;;33.45;11.60;;;;;;;3.06;78.00;101209.59;5049613;28;20417;-78
2021/11/10 04:55:25;;;;;;;18.47;10.77;;;;;;;3.13;77.73;101221.28;5045577;28;20410;-78
2021/11/10 04:57:50;;;;;;;13.07;8.73;;;;;;;3.18;77.34;101219.91;5048677;28;20405;-78
2021/11/10 05:00:16;;;;;;;13.63;8.87;;;;;;;3.20;77.61;101218.72;5041569;28;20431;-78
2021/11/10 05:02:41;;;;;;;52.05;31.30;;;;;;;3.21;77.54;101220.38;5042648;28;20483;-78
2021/11/10 05:05:07;;;;;;;79.53;48.63;;;;;;;3.20;76.29;101210.69;5039990;28;20406;-78
2021/11/10 05:07:34;;;;;;;52.05;29.90;;;;;;;3.19;77.02;101210.88;5038983;28;20430;-78
2021/11/10 05:10:00;;;;;;;26.05;16.85;;;;;;;3.14;77.20;101193.50;5048385;28;20819;-78
2021/11/10 05:12:26;;;;;;;35.03;20.70;;;;;;;3.14;77.16;101206.88;5049066;28;20413;-78
2021/11/10 05:14:53;;;;;;;11.17;8.73;;;;;;;3.11;76.91;101201.03;5048743;28;20405;-76
2021/11/10 05:17:25;;;;;;;10.65;8.07;;;;;;;3.06;76.73;101182.81;5047856;28;20395;-78
2021/11/10 05:19:51;;;;;;;11.63;8.13;;;;;;;2.94;76.80;101183.41;5042212;28;20532;-78
2021/11/10 05:22:17;;;;;;;20.08;8.63;;;;;;;2.86;76.21;101194.19;5050937;28;20496;-78
2021/11/10 05:24:43;;;;;;;12.57;8.02;;;;;;;2.84;76.27;101201.56;5046505;28;20932;-78
2021/11/10 05:27:08;;;;;;;13.07;8.38;;;;;;;2.75;76.26;101197.25;5041647;28;20412;-78
2021/11/10 05:29:33;;;;;;;13.17;8.40;;;;;;;2.71;75.99;101198.63;5053620;28;20409;-78
2021/11/10 05:31:59;;;;;;;12.60;8.87;;;;;;;2.60;75.77;101198.00;5054172;28;20413;-78
2021/11/10 05:34:24;;;;;;;11.53;8.07;;;;;;;2.58;76.33;101207.22;5054223;28;20405;-78
2021/11/10 05:36:50;;;;;;;14.90;8.47;;;;;;;2.58;75.96;101208.06;5050041;28;20409;-78
2021/11/10 05:39:17;;;;;;;15.07;7.97;;;;;;;2.56;76.46;101202.06;5051614;28;20402;-78
2021/11/10 05:41:44;;;;;;;12.20;8.00;;;;;;;2.55;76.34;101195.03;5050577;28;20741;-78
2021/11/10 05:44:10;;;;;;;12.25;8.63;;;;;;;2.54;76.51;101197.88;5043446;28;20423;-78
2021/11/10 05:46:35;;;;;;;12.00;8.30;;;;;;;2.55;77.09;101199.53;5054121;28;20405;-78
2021/11/10 05:49:03;;;;;;;13.40;8.70;;;;;;;2.53;76.73;101202.41;5052138;28;20423;-78
2021/11/10 05:51:29;;;;;;;16.50;10.10;;;;;;;2.51;76.86;101192.88;5049764;28;20437;-78
2021/11/10 05:53:55;;;;;;;11.93;8.67;;;;;;;2.47;77.29;101199.59;5049086;28;20404;-78
2021/11/10 05:56:22;;;;;;;14.43;8.25;;;;;;;2.46;77.58;101195.25;5039786;28;20403;-78
2021/11/10 05:58:48;;;;;;;11.60;7.85;;;;;;;2.46;77.97;101195.25;5050982;28;20413;-78
2021/11/10 06:01:14;;;;;;;46.00;24.75;;;;;;;2.49;78.16;101190.38;5036615;28;20743;-78
2021/11/10 06:03:39;;;;;;;36.23;19.80;;;;;;;2.54;78.09;101195.19;5034687;28;20402;-79
2021/11/10 06:06:05;;;;;;;20.40;13.70;;;;;;;2.50;78.55;101199.25;5048211;28;20389;-78
2021/11/10 06:08:31;;;;;;;20.77;13.35;;;;;;;2.48;78.47;101198.56;5039557;28;20776;-78
2021/11/10 06:10:56;;;;;;;18.90;12.23;;;;;;;2.50;78.62;101194.69;5054289;28;20401;-78
2021/11/10 06:13:21;;;;;;;18.70;12.73;;;;;;;2.53;78.61;101197.06;5042031;28;20454;-80
2021/11/10 06:15:48;;;;;;;19.45;11.85;;;;;;;2.56;78.19;101199.38;5046867;28;21280;-78
2021/11/10 06:18:14;;;;;;;26.60;13.03;;;;;;;2.60;78.39;101191.84;5037186;28;20460;-76
2021/11/10 06:20:39;;;;;;;18.70;11.07;;;;;;;2.65;78.16;101193.97;5049687;28;20470;-78
2021/11/10 06:23:05;;;;;;;19.35;11.25;;;;;;;2.63;78.16;101202.19;5043795;28;20413;-77
2021/11/10 06:25:31;;;;;;;17.95;10.73;;;;;;;2.61;77.84;101209.53;5032709;28;20414;-78
2021/11/10 06:27:57;;;;;;;13.70;9.73;;;;;;;2.62;78.26;101200.50;5040017;28;20464;-77
2021/11/10 06:30:23;;;;;;;12.23;9.40;;;;;;;2.61;78.26;101215.72;5053420;28;20775;-78
2021/11/10 06:32:49;;;;;;;21.97;12.13;;;;;;;2.61;78.60;101214.91;5047461;28;20393;-78
2021/11/10 06:35:14;;;;;;;17.95;11.27;;;;;;;2.67;78.51;101224.88;5049856;28;20875;-78
2021/11/10 06:37:39;;;;;;;18.87;13.50;;;;;;;2.71;78.76;101218.19;5037384;28;20399;-78
2021/11/10 06:40:07;;;;;;;19.07;12.47;;;;;;;2.66;78.29;101203.69;5046267;28;20413;-78
2021/11/10 06:42:33;;;;;;;15.55;11.45;;;;;;;2.66;78.36;101207.19;5048732;28;20433;-77
2021/11/10 06:44:58;;;;;;;34.20;18.13;;;;;;;2.67;78.01;101214.19;5052012;28;20451;-78
2021/11/10 06:47:24;;;;;;;30.03;15.80;;;;;;;2.72;77.15;101222.53;5051973;28;20412;-78
2021/11/10 06:49:49;;;;;;;22.35;13.98;;;;;;;2.73;76.62;101228.72;5047718;28;20409;-78
2021/11/10 06:52:43;;;;;;;23.80;13.90;;;;;;;2.75;75.82;101224.03;5048594;28;20401;-78
2021/11/10 06:55:09;;;;;;;19.60;12.77;;;;;;;2.82;75.80;101214.28;5044019;28;20386;-78
2021/11/10 06:57:36;;;;;;;20.02;12.32;;;;;;;2.87;76.30;101225.28;5043230;28;20749;-78
2021/11/10 07:00:05;;;;;;;21.27;12.02;;;;;;;2.92;76.27;101221.09;5039526;28;20886;-78
2021/11/10 07:02:30;;;;;;;19.08;12.80;;;;;;;2.95;76.15;101222.56;5042384;28;20398;-78
2021/11/10 07:04:55;;;;;;;20.27;12.70;;;;;;;2.93;76.60;101219.25;5049313;28;20459;-78
2021/11/10 07:07:20;;;;;;;21.47;13.10;;;;;;;3.01;76.66;101229.91;5035911;28;20461;-78
2021/11/10 07:09:46;;;;;;;20.23;13.83;;;;;;;3.08;76.67;101234.38;5053081;28;20413;-77
2021/11/10 07:12:11;;;;;;;16.87;12.60;;;;;;;3.14;77.00;101224.78;5043192;28;20469;-78
2021/11/10 07:14:37;;;;;;;14.57;9.88;;;;;;;3.18;77.26;101225.25;5040440;28;20908;-78
2021/11/10 07:17:02;;;;;;;12.40;9.75;;;;;;;3.25;77.57;101236.94;5050616;28;20788;-78
2021/11/10 07:19:28;;;;;;;12.50;9.77;;;;;;;3.34;77.43;101228.66;5040822;28;20417;-78
2021/11/10 07:21:53;;;;;;;10.73;8.47;;;;;;;3.40;77.37;101244.00;5041590;28;20421;-78
2021/11/10 07:24:18;;;;;;;10.97;7.20;;;;;;;3.33;77.79;101237.69;5040683;28;20391;-78
2021/11/10 07:26:44;;;;;;;12.17;7.83;;;;;;;3.42;77.62;101233.97;5043958;28;20515;-78
2021/11/10 07:29:09;;;;;;;15.13;10.73;;;;;;;3.49;77.57;101232.22;5035804;28;20421;-78
2021/11/10 07:31:34;;;;;;;11.00;8.70;;;;;;;3.55;77.17;101225.31;5049231;28;20416;-78
2021/11/10 07:34:01;;;;;;;10.87;8.57;;;;;;;3.61;77.39;101243.34;5040093;28;20399;-79
2021/11/10 07:36:28;;;;;;;9.15;8.20;;;;;;;3.70;77.23;101252.97;5047886;28;20476;-78
2021/11/10 07:38:55;;;;;;;10.43;7.85;;;;;;;3.77;77.13;101242.38;5044703;28;20435;-78
2021/11/10 07:41:22;;;;;;;9.35;7.63;;;;;;;3.80;77.23;101242.00;5044339;28;20409;-78
2021/11/10 07:43:52;;;;;;;10.13;8.27;;;;;;;3.88;76.89;101256.19;5037940;28;20391;-80
2021/11/10 07:46:19;;;;;;;9.25;7.47;;;;;;;3.98;76.92;101262.13;5032760;28;20399;-78
2021/11/10 07:48:47;;;;;;;10.68;7.45;;;;;;;4.13;76.56;101267.50;5051850;28;20978;-76
2021/11/10 07:51:13;;;;;;;9.35;8.15;;;;;;;4.31;75.78;101262.63;5048429;28;20404;-79
2021/11/10 07:53:38;;;;;;;10.02;7.80;;;;;;;4.43;75.30;101271.03;5041286;28;20418;-78
2021/11/10 07:56:04;;;;;;;13.87;10.10;;;;;;;4.45;74.77;101268.97;5032309;28;20403;-77
2021/11/10 07:58:30;;;;;;;15.88;9.35;;;;;;;4.45;74.62;101263.59;5036105;28;20395;-78
2021/11/10 08:00:55;;;;;;;12.60;8.25;;;;;;;4.44;74.89;101267.34;5045497;28;20448;-79
2021/11/10 08:03:21;;;;;;;11.07;7.83;;;;;;;4.44;74.61;101270.00;5042677;28;20385;-79
2021/11/10 08:05:46;;;;;;;10.07;7.07;;;;;;;4.41;73.99;101268.50;5043203;28;20414;-78
2021/11/10 08:08:12;;;;;;;12.80;8.67;;;;;;;4.40;74.16;101269.56;5051087;28;20409;-78
2021/11/10 08:10:37;;;;;;;14.27;8.57;;;;;;;4.33;74.79;101289.25;5043901;28;20423;-78
2021/11/10 08:19:00;;;;;;;9.13;7.35;;;;;;;4.71;74.71;101270.16;3378610;28;22396;-78
2021/11/10 08:21:26;;;;;;;10.33;7.40;;;;;;;4.98;74.11;101267.81;5020447;28;21105;-77
2021/11/10 08:23:51;;;;;;;15.27;6.30;;;;;;;5.16;73.40;101269.06;5029657;28;20415;-77
2021/11/10 08:26:17;;;;;;;9.83;6.57;;;;;;;5.29;73.74;101257.63;5030297;28;20478;-77
2021/11/10 08:28:43;;;;;;;10.38;7.03;;;;;;;5.41;72.91;101261.47;5031976;28;20406;-77
2021/11/10 08:31:09;;;;;;;10.90;5.85;;;;;;;5.42;72.74;101255.06;5031326;28;20399;-77
2021/11/10 08:33:34;;;;;;;17.02;13.15;;;;;;;5.35;73.94;101259.53;5028478;28;20495;-77
2021/11/10 08:36:00;;;;;;;16.80;12.80;;;;;;;5.41;73.50;101274.91;5031090;28;20482;-77
2021/11/10 08:38:26;;;;;;;9.33;6.87;;;;;;;5.46;73.48;101271.66;5031333;28;20804;-77
2021/11/10 08:40:52;;;;;;;11.57;6.88;;;;;;;5.58;73.94;101270.94;5030197;28;20817;-77
2021/11/10 08:43:18;;;;;;;11.87;7.30;;;;;;;5.71;73.59;101270.22;5030895;28;20427;-77
2021/11/10 08:45:45;;;;;;;10.07;6.65;;;;;;;5.79;73.06;101272.78;5013063;28;20400;-77
2021/11/10 08:48:11;;;;;;;7.15;6.40;;;;;;;5.92;72.87;101278.31;5030107;28;20896;-77
2021/11/10 08:50:41;;;;;;;13.45;10.30;;;;;;;5.95;72.89;101277.94;5030317;28;20474;-77
2021/11/10 08:53:06;;;;;;;11.05;8.77;;;;;;;5.81;73.15;101270.72;5030347;28;20749;-77
2021/11/10 08:55:32;;;;;;;14.87;9.33;;;;;;;5.90;73.28;101271.44;5030834;28;20399;-78
2021/11/10 08:57:57;;;;;;;11.80;9.50;;;;;;;5.91;73.53;101262.34;5028460;28;20434;-77
2021/11/10 09:00:27;;;;;;;21.20;13.17;;;;;;;6.00;72.99;101259.31;5030835;28;20406;-77
2021/11/10 09:02:53;;;;;;;16.45;11.82;;;;;;;5.92;72.80;101264.03;5028906;28;20410;-77
2021/11/10 09:05:18;;;;;;;15.25;10.63;;;;;;;5.83;73.09;101263.28;5020098;28;20434;-77
2021/11/10 09:07:44;;;;;;;16.07;11.30;;;;;;;5.97;73.07;101261.56;5029528;28;20500;-78
2021/11/10 09:10:12;;;;;;;12.00;9.55;;;;;;;6.11;72.61;101266.88;5030802;28;20750;-78
2021/11/10 09:12:39;;;;;;;13.30;10.15;;;;;;;6.11;72.25;101266.03;5031151;28;20410;-77
2021/11/10 09:15:08;;;;;;;16.20;11.50;;;;;;;6.16;72.36;101266.25;5030582;28;20403;-78
2021/11/10 09:17:36;;;;;;;18.05;11.23;;;;;;;6.39;71.78;101272.22;5021716;28;20461;-77
2021/11/10 09:20:08;;;;;;;14.97;10.53;;;;;;;6.55;71.55;101277.28;5031011;28;20743;-77
2021/11/10 09:22:34;;;;;;;13.88;11.13;;;;;;;6.56;71.49;101270.03;5031235;28;20427;-78
2021/11/10 09:24:59;;;;;;;20.67;11.65;;;;;;;6.43;72.48;101286.13;5030227;28;20402;-77
2021/11/10 09:27:25;;;;;;;11.57;8.93;;;;;;;6.48;71.77;101283.69;5031226;28;20541;-77
2021/11/10 09:29:50;;;;;;;12.20;9.07;;;;;;;6.60;71.54;101277.53;5030922;28;20784;-77
2021/11/10 09:32:16;;;;;;;14.23;8.83;;;;;;;6.71;71.75;101276.16;5026969;28;20411;-77
2021/11/10 09:34:41;;;;;;;12.55;9.95;;;;;;;6.84;71.34;101268.13;5030456;28;20751;-77
2021/11/10 09:37:07;;;;;;;14.25;10.18;;;;;;;7.20;70.56;101271.38;5029480;28;20439;-77
2021/11/10 09:39:32;;;;;;;15.53;10.03;;;;;;;7.31;69.70;101268.06;5030222;28;20391;-77
2021/11/10 09:41:57;;;;;;;13.13;9.67;;;;;;;7.36;69.51;101263.91;5030919;28;20394;-77
2021/11/10 09:44:24;;;;;;;11.82;9.63;;;;;;;7.45;69.01;101257.28;5030353;28;20461;-77
2021/11/10 09:46:51;;;;;;;12.00;9.47;;;;;;;7.58;69.39;101254.63;5022920;28;20466;-77
2021/11/10 09:49:16;;;;;;;18.98;10.15;;;;;;;7.66;69.28;101262.53;5019221;28;20391;-77
2021/11/10 09:51:43;;;;;;;15.52;10.70;;;;;;;7.78;68.43;101259.00;5030879;28;20402;-77
2021/11/10 09:54:11;;;;;;;14.10;10.65;;;;;;;7.78;68.39;101255.47;5030321;28;20407;-77
2021/11/10 09:56:38;;;;;;;16.73;10.75;;;;;;;7.94;67.80;101256.91;5029662;28;20762;-77
2021/11/10 09:59:03;;;;;;;15.23;11.45;;;;;;;7.89;67.84;101257.56;5024824;28;20441;-77
2021/11/10 10:01:30;;;;;;;14.80;9.90;;;;;;;7.74;68.57;101256.91;5025015;28;20411;-78
2021/11/10 10:03:56;;;;;;;13.23;10.65;;;;;;;7.70;68.79;101256.53;5030948;28;20426;-77
2021/11/10 10:06:22;;;;;;;17.77;10.63;;;;;;;7.66;69.75;101260.66;5034007;28;20503;-77
2021/11/10 10:08:48;;;;;;;14.47;10.97;;;;;;;7.58;69.68;101262.72;5031540;28;20414;-77
2021/11/10 10:11:14;;;;;;;22.23;13.47;;;;;;;7.79;69.13;101263.38;5023586;28;20411;-77
2021/11/10 10:13:39;;;;;;;17.30;12.38;;;;;;;7.89;68.45;101264.81;5033175;28;20411;-77
2021/11/10 10:16:06;;;;;;;18.10;12.40;;;;;;;7.88;68.44;101266.69;5034090;28;20791;-78
2021/11/10 10:18:31;;;;;;;17.67;10.87;;;;;;;7.75;69.21;101261.28;5033975;28;20426;-77
2021/11/10 10:21:01;;;;;;;15.93;10.90;;;;;;;7.62;69.23;101262.09;5032457;28;20456;-78
2021/11/10 10:23:31;;;;;;;14.15;10.63;;;;;;;7.54;69.93;101269.56;5031602;28;20433;-78
2021/11/10 10:26:11;;;;;;;14.88;10.82;;;;;;;7.61;69.78;101265.81;5030832;28;20904;-78
2021/11/10 10:28:42;;;;;;;20.20;12.20;;;;;;;7.72;69.26;101270.63;5030808;28;20434;-78
2021/11/10 10:31:10;;;;;;;16.70;10.80;;;;;;;7.81;69.21;101276.63;5030509;28;20390;-78
2021/11/10 10:33:44;;;;;;;15.02;11.82;;;;;;;7.83;69.37;101275.41;5042203;28;20894;-78
2021/11/10 10:36:13;;;;;;;16.27;12.30;;;;;;;7.88;68.99;101271.25;5032722;28;20477;-78
2021/11/10 10:38:47;;;;;;;12.85;10.45;;;;;;;7.82;69.64;101265.66;5032166;28;20423;-79
2021/11/10 10:41:16;;;;;;;18.65;11.95;;;;;;;7.89;70.00;101273.75;5033692;28;20880;-78
2021/11/10 10:43:50;;;;;;;16.17;11.57;;;;;;;7.94;69.03;101278.50;5032414;28;20407;-78
2021/11/10 10:46:16;;;;;;;17.73;12.00;;;;;;;8.12;68.68;101270.63;5021579;28;20395;-78
2021/11/10 10:48:43;;;;;;;16.90;12.82;;;;;;;8.11;69.05;101271.66;5030669;28;20426;-79
2021/11/10 10:51:15;;;;;;;17.02;12.35;;;;;;;8.22;68.87;101271.03;5032074;28;20770;-79
2021/11/10 10:53:42;;;;;;;16.47;12.00;;;;;;;8.17;68.90;101271.63;5017715;28;20467;-79
2021/11/10 10:56:33;;;;;;;16.98;12.00;;;;;;;8.21;69.11;101261.25;5031825;28;20396;-79
2021/11/10 10:59:06;;;;;;;15.00;11.97;;;;;;;8.23;69.27;101256.50;5030878;28;20423;-79
2021/11/10 11:01:37;;;;;;;18.43;12.17;;;;;;;8.14;69.32;101252.31;5031974;28;20464;-80
2021/11/10 11:04:07;;;;;;;18.17;13.07;;;;;;;8.19;68.98;101247.97;5033561;28;20747;-79
2021/11/10 11:07:03;;;;;;;19.88;11.45;;;;;;;8.30;69.27;101252.75;5032904;28;20420;-78
2021/11/10 11:09:32;;;;;;;17.70;13.30;;;;;;;8.31;69.11;101240.91;5023624;28;20456;-78
2021/11/10 11:12:14;;;;;;;18.30;12.57;;;;;;;8.32;69.46;101242.59;5028972;28;20397;-79
2021/11/10 11:15:04;;;;;;;17.80;11.77;;;;;;;8.43;69.17;101241.09;5028045;28;20394;-78
2021/11/10 11:17:35;;;;;;;20.70;12.77;;;;;;;8.54;68.98;101236.91;5026725;28;20496;-78
2021/11/10 11:20:09;;;;;;;17.42;12.23;;;;;;;8.56;69.13;101230.25;5029918;28;20423;-79
2021/11/10 11:22:50;;;;;;;21.20;12.10;;;;;;;8.57;69.24;101234.63;5030557;28;20453;-78
2021/11/10 11:25:26;;;;;;;15.63;12.83;;;;;;;8.67;68.86;101234.16;5026147;28;20893;-78
2021/11/10 11:28:04;;;;;;;17.60;12.93;;;;;;;8.69;68.48;101234.78;5032096;28;20418;-78